Time;durP1;ratioP1;P1;durP2;ratioP2;P2;SDS_P1;SDS_P2;PMS_P1;PMS_P2;Temp;Humidity;BMP_temperature;BMP_pressure;BME280_temperature;BME280_humidity;BME280_pressure;Samples;Min_cycle;Max_cycle;Signal;HPM_P1;HPM_P2
2021/06/13 00:01:02;;;;;;;10.85;9.52;;;23.20;96.70;;;;;;5100580;28;20478;-75
2021/06/13 00:03:30;;;;;;;9.93;8.85;;;23.20;96.70;;;;;;5087002;28;20055;-75
2021/06/13 00:05:59;;;;;;;10.38;9.48;;;23.30;96.70;;;;;;5101667;27;20043;-75
2021/06/13 00:08:27;;;;;;;11.93;10.82;;;23.30;96.70;;;;;;5099781;27;20101;-75
2021/06/13 00:11:04;;;;;;;12.50;11.20;;;23.30;96.70;;;;;;5103857;27;20073;-75
2021/06/13 00:13:34;;;;;;;10.52;9.52;;;23.10;96.70;;;;;;5097554;27;20044;-75
2021/06/13 00:16:04;;;;;;;11.13;10.13;;;23.20;96.70;;;;;;5098155;27;20051;-75
2021/06/13 00:18:35;;;;;;;9.13;8.32;;;23.40;96.70;;;;;;5097323;27;20039;-74
2021/06/13 00:21:05;;;;;;;9.55;8.65;;;23.50;96.70;;;;;;5098618;27;20580;-75
2021/06/13 00:23:34;;;;;;;11.50;10.40;;;23.60;96.70;;;;;;5105895;27;20613;-75
2021/06/13 00:26:21;;;;;;;11.30;10.20;;;23.60;96.70;;;;;;5098907;28;20068;-75
2021/06/13 00:28:51;;;;;;;11.77;10.63;;;23.60;96.70;;;;;;5103989;27;20054;-75
2021/06/13 00:31:21;;;;;;;9.45;8.55;;;23.60;96.70;;;;;;5099463;28;20043;-75
2021/06/13 00:33:52;;;;;;;11.38;8.60;;;23.60;96.70;;;;;;5106608;27;20047;-75
2021/06/13 00:36:22;;;;;;;8.77;7.93;;;23.50;96.70;;;;;;5102263;28;20031;-75
2021/06/13 00:38:52;;;;;;;6.90;6.20;;;23.50;96.70;;;;;;5099649;28;20032;-75
2021/06/13 00:41:24;;;;;;;6.90;6.30;;;23.40;96.70;;;;;;5102682;27;20047;-75
2021/06/13 00:43:56;;;;;;;6.65;6.03;;;23.40;96.70;;;;;;5099670;28;20040;-75
2021/06/13 00:46:25;;;;;;;5.90;5.30;;;23.40;96.70;;;;;;5097562;27;20063;-75
2021/06/13 00:48:57;;;;;;;6.10;5.18;;;23.30;96.70;;;;;;5102156;27;20043;-74
2021/06/13 00:51:37;;;;;;;6.40;5.38;;;23.20;96.70;;;;;;5101676;28;20039;-74
2021/06/13 00:54:13;;;;;;;5.38;4.82;;;23.00;96.70;;;;;;5125121;27;20139;-74
2021/06/13 00:56:44;;;;;;;5.68;5.10;;;23.00;96.70;;;;;;5099765;28;20560;-74
2021/06/13 00:59:15;;;;;;;6.18;5.57;;;23.00;96.70;;;;;;5100168;28;20125;-74
2021/06/13 01:01:45;;;;;;;4.88;4.47;;;23.00;96.70;;;;;;5097297;27;20085;-74
2021/06/13 01:04:16;;;;;;;5.78;5.05;;;22.90;96.70;;;;;;5099538;28;20040;-74
2021/06/13 01:06:54;;;;;;;5.28;4.70;;;22.90;96.70;;;;;;5095465;28;20071;-74
2021/06/13 01:09:27;;;;;;;5.15;4.68;;;22.80;96.70;;;;;;5104597;27;20108;-74
2021/06/13 01:12:04;;;;;;;5.00;4.50;;;22.80;96.70;;;;;;5099724;28;20050;-74
2021/06/13 01:14:42;;;;;;;6.22;4.93;;;22.80;96.70;;;;;;5118240;27;20441;-74
2021/06/13 01:17:17;;;;;;;5.90;4.97;;;22.80;96.70;;;;;;5116156;27;20043;-74
2021/06/13 01:19:55;;;;;;;6.13;5.07;;;22.90;96.70;;;;;;5106916;27;20055;-74
2021/06/13 01:22:49;;;;;;;5.45;4.93;;;22.90;96.70;;;;;;5098460;28;20076;-73
2021/06/13 01:25:34;;;;;;;6.00;4.70;;;22.70;96.70;;;;;;5095186;28;20093;-74
2021/06/13 01:28:32;;;;;;;6.13;5.50;;;22.70;96.70;;;;;;5092440;28;20035;-74
2021/06/13 01:31:05;;;;;;;5.30;4.60;;;22.90;96.70;;;;;;5088052;28;20055;-74
2021/06/13 01:33:36;;;;;;;5.88;5.28;;;22.90;96.70;;;;;;5099238;28;20055;-74
2021/06/13 01:36:08;;;;;;;6.45;5.68;;;22.90;96.70;;;;;;5097500;28;20314;-74
2021/06/13 01:38:39;;;;;;;5.93;5.43;;;23.00;96.70;;;;;;5105689;28;20425;-74
2021/06/13 01:41:12;;;;;;;8.77;5.95;;;22.80;96.70;;;;;;5099262;28;20047;-74
2021/06/13 01:43:43;;;;;;;7.00;5.35;;;22.80;96.70;;;;;;5099366;28;20043;-74
2021/06/13 01:46:19;;;;;;;6.22;5.63;;;22.80;96.70;;;;;;5101863;28;20036;-74
2021/06/13 01:48:50;;;;;;;6.82;6.28;;;22.80;96.70;;;;;;5102599;27;20040;-74
2021/06/13 01:51:20;;;;;;;6.25;5.35;;;22.90;96.70;;;;;;5105606;28;20085;-73
2021/06/13 01:53:51;;;;;;;6.32;5.68;;;22.90;96.70;;;;;;5108045;27;20109;-74
2021/06/13 01:56:26;;;;;;;;;;;22.70;96.70;;;;;;5122440;27;20101;-74
2021/06/13 01:58:58;;;;;;;5.50;5.00;;;22.60;96.70;;;;;;5104327;28;20844;-74
2021/06/13 02:01:50;;;;;;;6.53;5.95;;;22.70;96.70;;;;;;5105806;27;20076;-74
2021/06/13 02:04:22;;;;;;;6.40;5.80;;;22.70;96.70;;;;;;5103625;28;20050;-73
2021/06/13 02:06:59;;;;;;;8.93;6.30;;;22.80;96.70;;;;;;5104579;27;20043;-74
2021/06/13 02:09:30;;;;;;;6.63;5.50;;;22.70;96.70;;;;;;5114291;27;20039;-74
2021/06/13 02:12:05;;;;;;;7.20;6.55;;;22.70;96.70;;;;;;5107245;27;20559;-74
2021/06/13 02:14:43;;;;;;;9.32;7.20;;;22.80;96.70;;;;;;5101776;28;20059;-74
2021/06/13 02:17:14;;;;;;;6.75;6.03;;;22.80;96.70;;;;;;5109968;27;20039;-73
2021/06/13 02:19:51;;;;;;;6.32;5.78;;;22.80;96.70;;;;;;5105531;27;20126;-74
2021/06/13 02:22:33;;;;;;;6.68;6.00;;;22.70;96.70;;;;;;5100896;27;20028;-73
2021/06/13 02:25:04;;;;;;;10.82;6.32;;;22.70;96.70;;;;;;5100882;27;20063;-74
2021/06/13 02:27:36;;;;;;;6.65;6.07;;;22.80;96.70;;;;;;5099726;27;20055;-74
2021/06/13 02:30:07;;;;;;;6.72;6.13;;;22.70;96.70;;;;;;5102763;27;20264;-74
2021/06/13 02:32:41;;;;;;;7.05;5.65;;;22.70;96.70;;;;;;5101722;27;20741;-74
2021/06/13 02:35:13;;;;;;;7.05;6.15;;;22.60;96.70;;;;;;5127392;27;20134;-74
2021/06/13 02:37:46;;;;;;;6.38;5.88;;;22.60;96.70;;;;;;5120911;27;20149;-74
2021/06/13 02:40:24;;;;;;;6.53;5.95;;;22.60;96.70;;;;;;5102397;28;20382;-74
2021/06/13 02:42:53;;;;;;;6.95;6.25;;;22.50;96.70;;;;;;5104332;27;20146;-74
2021/06/13 02:45:24;;;;;;;6.45;5.95;;;22.40;96.70;;;;;;5101369;27;20035;-74
2021/06/13 02:47:57;;;;;;;6.32;5.72;;;22.60;96.70;;;;;;5083599;27;20043;-74
2021/06/13 02:50:31;;;;;;;6.63;6.07;;;22.40;96.70;;;;;;5107673;27;20061;-74
2021/06/13 02:53:10;;;;;;;9.30;6.65;;;22.30;96.70;;;;;;5098645;27;20062;-74
2021/06/13 02:55:48;;;;;;;7.40;5.88;;;22.20;96.70;;;;;;5099245;27;20035;-74
2021/06/13 02:58:41;;;;;;;6.93;6.32;;;22.30;96.70;;;;;;5102808;27;20047;-74
2021/06/13 03:01:14;;;;;;;7.57;6.88;;;22.30;96.70;;;;;;5107993;27;20052;-74
2021/06/13 03:03:46;;;;;;;7.80;7.00;;;22.20;96.70;;;;;;5104717;27;20097;-74
2021/06/13 03:06:19;;;;;;;8.05;6.80;;;22.10;96.70;;;;;;5101827;27;20139;-74
2021/06/13 03:08:53;;;;;;;7.90;7.28;;;22.00;96.70;;;;;;5099874;28;20469;-74
2021/06/13 03:11:26;;;;;;;8.15;7.28;;;21.90;96.70;;;;;;5103106;27;20034;-74
2021/06/13 03:13:58;;;;;;;7.88;7.10;;;21.90;96.70;;;;;;5101721;27;20575;-74
2021/06/13 03:16:34;;;;;;;7.95;6.45;;;21.90;96.70;;;;;;5102306;27;20417;-75
2021/06/13 03:19:17;;;;;;;9.02;6.70;;;21.90;96.70;;;;;;5105734;27;20047;-74
2021/06/13 03:22:00;;;;;;;9.05;7.10;;;21.90;96.70;;;;;;5103903;27;20413;-75
2021/06/13 03:24:40;;;;;;;9.55;7.38;;;22.00;96.70;;;;;;5104880;27;20501;-74
2021/06/13 03:27:10;;;;;;;7.72;6.97;;;21.90;96.70;;;;;;5090109;28;20059;-75
2021/06/13 03:29:43;;;;;;;8.13;7.10;;;21.80;96.70;;;;;;5101083;28;20111;-75
2021/06/13 03:32:15;;;;;;;7.10;6.38;;;21.80;96.70;;;;;;5103630;27;20505;-75
2021/06/13 03:34:48;;;;;;;8.68;7.75;;;21.80;96.70;;;;;;5100893;27;20505;-74
2021/06/13 03:37:20;;;;;;;8.05;6.47;;;21.80;96.70;;;;;;5099058;27;20085;-74
2021/06/13 03:39:50;;;;;;;8.48;6.55;;;21.90;96.70;;;;;;5093618;27;20751;-75
2021/06/13 03:42:18;;;;;;;7.13;6.43;;;21.90;96.70;;;;;;5103550;27;20123;-75
2021/06/13 03:44:48;;;;;;;6.75;6.15;;;21.80;96.70;;;;;;5101943;27;20054;-75
2021/06/13 03:47:17;;;;;;;7.30;6.63;;;21.70;96.70;;;;;;5110048;27;20039;-75
2021/06/13 03:49:48;;;;;;;7.38;6.70;;;21.60;96.70;;;;;;5099268;28;20067;-75
2021/06/13 03:52:19;;;;;;;6.60;6.00;;;21.60;96.70;;;;;;5108343;27;20138;-75
2021/06/13 03:54:48;;;;;;;8.65;7.05;;;21.50;96.70;;;;;;5101283;27;20044;-75
2021/06/13 03:57:21;;;;;;;8.10;7.30;;;21.40;96.70;;;;;;5096829;27;20497;-75
2021/06/13 03:59:53;;;;;;;8.52;7.72;;;21.40;96.70;;;;;;5103817;27;20130;-75
2021/06/13 04:02:23;;;;;;;9.18;8.27;;;21.40;96.70;;;;;;5099236;28;20123;-75
2021/06/13 04:04:55;;;;;;;9.40;8.23;;;21.40;96.70;;;;;;5101398;28;20489;-75
2021/06/13 04:07:25;;;;;;;8.70;7.90;;;21.40;96.70;;;;;;5102065;27;20041;-75
2021/06/13 04:09:53;;;;;;;10.77;9.77;;;21.40;96.70;;;;;;5098577;27;20054;-75
2021/06/13 04:12:24;;;;;;;12.18;10.98;;;21.40;96.70;;;;;;5097942;28;20066;-75
2021/06/13 04:14:54;;;;;;;12.75;11.45;;;21.40;96.70;;;;;;5114195;27;20544;-74
2021/06/13 04:17:26;;;;;;;12.25;11.05;;;21.40;96.70;;;;;;5101909;27;20040;-74
2021/06/13 04:19:58;;;;;;;9.57;8.65;;;21.40;96.70;;;;;;5118624;27;20047;-75
2021/06/13 04:22:27;;;;;;;13.98;11.75;;;21.30;96.70;;;;;;5095370;27;20047;-74
2021/06/13 04:24:59;;;;;;;10.85;9.18;;;21.30;96.70;;;;;;5101742;27;20525;-75
2021/06/13 04:27:30;;;;;;;11.45;10.35;;;21.40;96.70;;;;;;5102559;27;20032;-74
2021/06/13 04:30:00;;;;;;;14.93;10.75;;;21.40;96.70;;;;;;5104881;27;20800;-75
2021/06/13 04:32:28;;;;;;;12.35;10.93;;;21.40;96.70;;;;;;5102214;27;20063;-75
2021/06/13 04:34:57;;;;;;;10.00;9.00;;;21.40;96.70;;;;;;5086701;28;20043;-75
2021/06/13 04:37:25;;;;;;;10.50;8.93;;;21.50;96.70;;;;;;5087783;28;20039;-74
2021/06/13 04:39:53;;;;;;;7.53;6.82;;;21.70;96.70;;;;;;5102277;27;20579;-75
2021/06/13 04:42:22;;;;;;;6.28;5.78;;;21.90;96.70;;;;;;5095951;28;20115;-75
2021/06/13 04:44:50;;;;;;;5.32;4.93;;;22.00;96.70;;;;;;5099546;27;21162;-75
2021/06/13 04:47:18;;;;;;;7.93;6.05;;;22.00;96.70;;;;;;5104125;27;20489;-75
2021/06/13 04:49:51;;;;;;;5.72;5.15;;;22.00;96.70;;;;;;5102160;28;20051;-75
2021/06/13 04:52:23;;;;;;;5.53;4.97;;;21.90;96.70;;;;;;5099901;27;20046;-75
2021/06/13 04:55:13;;;;;;;5.70;5.20;;;22.00;96.70;;;;;;5097775;28;20050;-75
2021/06/13 04:58:08;;;;;;;5.90;5.30;;;22.10;96.70;;;;;;5100764;27;20531;-75
2021/06/13 05:00:36;;;;;;;8.73;7.28;;;22.10;96.70;;;;;;5098074;28;20082;-75
2021/06/13 05:03:05;;;;;;;12.57;11.23;;;22.10;96.70;;;;;;5100140;27;20568;-75
2021/06/13 05:05:33;;;;;;;15.25;11.57;;;22.10;96.70;;;;;;5100790;28;20051;-75
2021/06/13 05:08:04;;;;;;;14.98;11.93;;;22.20;96.70;;;;;;5105315;27;20044;-75
2021/06/13 05:10:33;;;;;;;15.68;14.00;;;22.20;96.70;;;;;;5096788;28;20046;-75
2021/06/13 05:13:01;;;;;;;16.17;14.48;;;22.20;96.70;;;;;;5096288;27;20048;-75
2021/06/13 05:15:29;;;;;;;17.75;15.85;;;22.20;96.70;;;;;;5093978;28;20036;-74
2021/06/13 05:17:57;;;;;;;19.35;15.07;;;22.20;96.70;;;;;;5098641;27;20123;-75
2021/06/13 05:20:26;;;;;;;18.52;14.32;;;22.20;96.70;;;;;;5100529;28;20039;-74
2021/06/13 05:22:59;;;;;;;19.90;15.18;;;22.00;96.70;;;;;;5103692;27;20044;-74
2021/06/13 05:25:32;;;;;;;16.65;13.77;;;21.90;96.70;;;;;;5098054;27;20040;-74
2021/06/13 05:28:01;;;;;;;16.10;12.90;;;22.00;96.70;;;;;;5094648;28;20624;-75
2021/06/13 05:30:31;;;;;;;14.80;13.30;;;22.20;96.70;;;;;;5098644;28;20028;-75
2021/06/13 05:33:00;;;;;;;17.40;15.60;;;22.40;96.70;;;;;;5101510;28;20088;-75
2021/06/13 05:35:29;;;;;;;15.85;14.13;;;22.50;96.70;;;;;;5094781;28;20455;-74
2021/06/13 05:37:57;;;;;;;14.77;13.27;;;22.50;96.70;;;;;;5098549;28;20042;-75
2021/06/13 05:40:27;;;;;;;16.10;14.40;;;22.60;96.70;;;;;;5100988;28;20406;-75
2021/06/13 05:42:56;;;;;;;15.45;13.55;;;22.60;96.70;;;;;;5084437;28;20040;-75
2021/06/13 05:45:26;;;;;;;18.70;15.55;;;22.70;96.70;;;;;;5105628;28;20067;-75
2021/06/13 05:47:55;;;;;;;17.55;15.60;;;22.70;96.70;;;;;;5098312;28;20048;-74
2021/06/13 05:50:23;;;;;;;17.92;14.55;;;22.80;96.70;;;;;;5094737;28;20040;-75
2021/06/13 05:52:51;;;;;;;16.27;14.57;;;22.60;96.70;;;;;;5102033;28;20050;-75
2021/06/13 05:55:19;;;;;;;17.48;15.68;;;22.60;96.70;;;;;;5089409;28;20462;-75
2021/06/13 05:57:48;;;;;;;16.83;15.02;;;22.60;96.70;;;;;;5100849;28;20051;-75
2021/06/13 06:00:21;;;;;;;15.10;12.85;;;22.70;96.70;;;;;;5099361;28;20036;-75
2021/06/13 06:02:49;;;;;;;14.52;13.02;;;22.60;96.70;;;;;;5097383;28;20224;-75
2021/06/13 06:05:18;;;;;;;15.13;13.00;;;22.60;96.70;;;;;;5097211;28;20048;-75
2021/06/13 06:07:48;;;;;;;13.43;11.48;;;22.60;96.70;;;;;;5087544;28;20055;-74
2021/06/13 06:10:17;;;;;;;13.77;12.23;;;22.70;96.70;;;;;;5100021;28;20553;-75
2021/06/13 06:12:46;;;;;;;15.73;14.00;;;22.70;96.70;;;;;;5114643;28;20134;-74
2021/06/13 06:15:16;;;;;;;14.57;12.55;;;22.70;96.70;;;;;;5099321;28;20046;-75
2021/06/13 06:17:47;;;;;;;17.10;14.25;;;22.80;96.70;;;;;;5098355;28;20048;-74
2021/06/13 06:20:17;;;;;;;17.85;14.55;;;22.90;96.70;;;;;;5098826;28;20040;-75
2021/06/13 06:22:45;;;;;;;17.20;13.82;;;22.90;96.70;;;;;;5098245;28;20123;-75
2021/06/13 06:25:14;;;;;;;15.82;13.95;;;22.90;96.70;;;;;;5103144;28;20565;-75
2021/06/13 06:27:43;;;;;;;17.70;14.85;;;22.70;96.70;;;;;;5095086;28;20092;-75
2021/06/13 06:30:13;;;;;;;15.93;14.15;;;22.60;96.70;;;;;;5083754;28;20469;-75
2021/06/13 06:32:42;;;;;;;16.90;14.90;;;22.60;96.70;;;;;;5103659;28;20061;-75
2021/06/13 06:35:13;;;;;;;15.23;13.63;;;22.60;96.70;;;;;;5103749;27;20562;-75
2021/06/13 06:37:43;;;;;;;17.17;14.50;;;22.70;96.70;;;;;;5110568;27;20063;-75
2021/06/13 06:40:12;;;;;;;15.80;14.20;;;22.60;96.70;;;;;;5102312;28;20034;-75
2021/06/13 06:42:41;;;;;;;16.60;14.80;;;22.60;96.70;;;;;;5106536;27;20055;-75
2021/06/13 06:45:12;;;;;;;15.13;13.50;;;22.60;96.70;;;;;;5104528;27;20040;-75
2021/06/13 06:47:41;;;;;;;16.73;14.85;;;22.70;96.70;;;;;;5103911;27;20241;-75
2021/06/13 06:50:12;;;;;;;17.25;15.10;;;22.70;96.70;;;;;;5095908;28;20036;-75
2021/06/13 06:52:40;;;;;;;17.13;15.20;;;22.80;96.70;;;;;;5104682;27;20050;-75
2021/06/13 06:55:10;;;;;;;15.30;13.70;;;22.90;96.70;;;;;;5085429;28;20573;-75
2021/06/13 06:57:43;;;;;;;16.60;14.90;;;23.00;96.70;;;;;;5107962;27;20063;-75
2021/06/13 07:00:13;;;;;;;16.50;14.80;;;23.20;96.70;;;;;;5091298;28;20086;-75
2021/06/13 07:02:41;;;;;;;17.25;14.32;;;23.30;96.70;;;;;;5099413;27;20083;-75
2021/06/13 07:05:13;;;;;;;14.98;13.48;;;23.30;96.70;;;;;;5099570;27;20040;-75
2021/06/13 07:07:42;;;;;;;17.95;14.77;;;23.30;96.70;;;;;;5098916;28;20416;-75
2021/06/13 07:10:12;;;;;;;17.63;14.75;;;23.30;96.70;;;;;;5103441;27;20218;-75
2021/06/13 07:12:41;;;;;;;18.38;15.07;;;23.30;96.70;;;;;;5098544;28;20038;-75
2021/06/13 07:15:10;;;;;;;14.70;13.18;;;23.30;96.70;;;;;;5104659;27;20081;-74
2021/06/13 07:17:39;;;;;;;18.27;14.98;;;23.20;96.70;;;;;;5090357;27;20079;-75
2021/06/13 07:20:08;;;;;;;18.02;15.68;;;23.30;96.70;;;;;;5102619;27;20128;-75
2021/06/13 07:22:39;;;;;;;14.82;13.32;;;23.30;96.70;;;;;;5101993;27;20089;-75
2021/06/13 07:25:09;;;;;;;14.77;13.18;;;23.40;96.70;;;;;;5100757;28;20043;-75
2021/06/13 07:27:38;;;;;;;14.85;13.25;;;23.50;96.70;;;;;;5093925;27;20699;-75
2021/06/13 07:30:09;;;;;;;15.88;14.20;;;23.50;96.70;;;;;;5101256;27;20043;-75
2021/06/13 07:32:38;;;;;;;15.45;13.85;;;23.60;96.70;;;;;;5101625;27;20134;-75
2021/06/13 07:35:08;;;;;;;16.60;14.50;;;23.60;96.70;;;;;;5103252;27;20097;-75
2021/06/13 07:37:36;;;;;;;16.10;14.45;;;23.70;96.70;;;;;;5103130;27;20035;-75
2021/06/13 07:40:07;;;;;;;13.48;12.18;;;23.80;96.70;;;;;;5099467;28;20050;-75
2021/06/13 07:42:35;;;;;;;14.10;12.70;;;23.90;96.70;;;;;;5104460;27;20575;-75
2021/06/13 07:45:05;;;;;;;13.93;12.48;;;23.90;96.70;;;;;;5100926;27;20059;-75
2021/06/13 07:47:33;;;;;;;14.27;12.77;;;24.00;96.70;;;;;;5102146;28;20043;-75
2021/06/13 07:50:03;;;;;;;15.30;13.60;;;23.90;96.70;;;;;;5100506;27;20061;-75
2021/06/13 07:52:31;;;;;;;16.58;13.43;;;23.90;96.70;;;;;;5102702;27;20073;-74
2021/06/13 07:55:00;;;;;;;15.65;13.98;;;24.00;96.70;;;;;;5103557;27;20046;-75
2021/06/13 07:57:29;;;;;;;12.75;11.52;;;24.10;96.70;;;;;;5104484;27;20097;-75
2021/06/13 07:59:58;;;;;;;13.68;12.27;;;24.10;96.70;;;;;;5094742;28;20437;-74
2021/06/13 08:02:26;;;;;;;15.23;13.15;;;24.20;96.70;;;;;;5108855;27;20055;-74
2021/06/13 08:05:06;;;;;;;14.27;12.88;;;24.30;96.70;;;;;;5101501;27;20066;-75
2021/06/13 08:07:35;;;;;;;14.07;12.68;;;24.30;96.70;;;;;;5100452;28;20039;-75
2021/06/13 08:10:04;;;;;;;12.40;11.10;;;24.30;96.70;;;;;;5100860;27;20122;-75
2021/06/13 08:12:34;;;;;;;12.35;11.15;;;24.30;96.70;;;;;;5097948;27;20040;-75
2021/06/13 08:15:03;;;;;;;11.73;10.60;;;24.30;96.70;;;;;;5103926;27;20074;-75
2021/06/13 08:17:31;;;;;;;14.75;11.73;;;24.30;96.70;;;;;;5103015;27;20557;-75
2021/06/13 08:20:00;;;;;;;11.48;10.35;;;24.30;96.70;;;;;;5106212;27;20131;-74
2021/06/13 08:22:30;;;;;;;10.93;9.93;;;24.40;96.70;;;;;;5101050;27;20408;-75
2021/06/13 08:24:58;;;;;;;10.88;9.73;;;24.50;96.70;;;;;;5100463;27;20035;-75
2021/06/13 08:27:27;;;;;;;10.80;9.70;;;24.50;96.70;;;;;;5103345;27;20070;-76
2021/06/13 08:29:58;;;;;;;11.73;10.52;;;24.40;96.70;;;;;;5103881;27;20439;-74
2021/06/13 08:32:27;;;;;;;11.57;10.48;;;24.60;96.70;;;;;;5099098;27;20047;-75
2021/06/13 08:34:56;;;;;;;11.93;10.90;;;24.70;96.70;;;;;;5108377;27;20134;-75
2021/06/13 08:37:24;;;;;;;11.63;10.43;;;24.80;96.70;;;;;;5102009;27;20042;-74
2021/06/13 08:39:52;;;;;;;10.85;9.75;;;24.90;96.70;;;;;;5102769;27;20370;-74
2021/06/13 08:42:21;;;;;;;11.48;10.30;;;24.90;96.70;;;;;;5100319;27;20048;-75
2021/06/13 08:44:49;;;;;;;9.27;8.48;;;24.90;96.70;;;;;;5081120;28;20616;-74
2021/06/13 08:47:22;;;;;;;10.02;9.13;;;25.00;96.70;;;;;;5096773;27;20046;-73
2021/06/13 08:49:50;;;;;;;10.32;9.32;;;25.00;96.70;;;;;;5095927;28;20039;-74
2021/06/13 08:52:19;;;;;;;9.38;8.50;;;25.10;96.70;;;;;;5101111;27;20074;-75
2021/06/13 08:54:47;;;;;;;11.95;10.85;;;25.10;96.70;;;;;;5106312;27;20085;-74
2021/06/13 08:57:16;;;;;;;12.25;10.82;;;25.10;96.70;;;;;;5099832;28;20745;-75
2021/06/13 08:59:46;;;;;;;13.68;10.27;;;25.20;96.70;;;;;;5102323;27;20048;-75
2021/06/13 09:02:15;;;;;;;10.27;9.27;;;25.20;96.70;;;;;;5099181;27;20047;-74
2021/06/13 09:04:45;;;;;;;9.88;8.88;;;25.30;96.70;;;;;;5099451;27;20112;-75
2021/06/13 09:07:15;;;;;;;10.75;9.85;;;25.40;96.70;;;;;;5099179;27;20117;-75
2021/06/13 09:09:43;;;;;;;11.20;9.82;;;25.50;96.70;;;;;;5101185;27;20067;-74
2021/06/13 09:12:12;;;;;;;16.92;15.20;;;25.60;96.70;;;;;;5100286;28;20530;-74
2021/06/13 09:14:41;;;;;;;9.63;8.73;;;25.60;96.70;;;;;;5098617;28;20070;-74
2021/06/13 09:17:18;;;;;;;9.20;8.27;;;25.70;96.70;;;;;;5082550;28;20044;-74
2021/06/13 09:20:24;;;;;;;10.38;9.48;;;25.80;96.70;;;;;;5101854;27;20054;-74
2021/06/13 09:23:11;;;;;;;9.77;8.55;;;25.80;96.70;;;;;;5097391;28;20562;-74
2021/06/13 09:25:42;;;;;;;10.23;9.23;;;25.90;96.70;;;;;;5101210;28;20216;-75
2021/06/13 09:28:12;;;;;;;9.35;8.55;;;25.90;96.70;;;;;;5113137;27;20054;-74
2021/06/13 09:30:42;;;;;;;9.63;8.73;;;25.90;96.70;;;;;;5101697;27;20042;-74
2021/06/13 09:33:14;;;;;;;8.57;7.82;;;26.00;96.70;;;;;;5100231;28;20063;-75
2021/06/13 09:35:45;;;;;;;8.80;7.90;;;26.00;96.70;;;;;;5099596;28;20414;-75
2021/06/13 09:38:17;;;;;;;8.90;7.38;;;26.10;96.70;;;;;;5100115;28;20123;-77
2021/06/13 09:40:49;;;;;;;8.90;7.70;;;26.10;96.70;;;;;;5097917;28;20050;-77
2021/06/13 09:43:20;;;;;;;10.80;9.77;;;26.30;96.70;;;;;;5118140;27;20048;-76
2021/06/13 09:45:58;;;;;;;6.90;6.40;;;26.40;96.70;;;;;;5084672;28;20048;-76
2021/06/13 09:48:27;;;;;;;7.53;6.82;;;26.50;96.70;;;;;;5101319;28;20060;-76
2021/06/13 09:51:00;;;;;;;7.47;6.70;;;26.70;96.70;;;;;;5102722;27;20085;-76
2021/06/13 09:53:36;;;;;;;6.75;6.05;;;26.70;96.70;;;;;;5085746;28;20134;-76
2021/06/13 09:56:14;;;;;;;6.32;5.78;;;26.70;96.70;;;;;;5098838;28;20058;-76
2021/06/13 09:58:55;;;;;;;6.90;6.30;;;26.80;96.70;;;;;;5095925;28;20508;-77
2021/06/13 10:01:27;;;;;;;7.00;6.30;;;26.80;96.70;;;;;;5098582;28;20063;-76
2021/06/13 10:03:56;;;;;;;7.53;6.53;;;26.80;96.70;;;;;;5098439;28;20062;-75
2021/06/13 10:06:29;;;;;;;6.03;5.53;;;27.00;96.70;;;;;;5101013;28;20048;-75
2021/06/13 10:08:58;;;;;;;5.95;5.45;;;27.20;96.70;;;;;;5097145;28;20061;-74
2021/06/13 10:11:27;;;;;;;5.78;5.18;;;27.30;96.70;;;;;;5107190;27;20392;-75
2021/06/13 10:13:58;;;;;;;5.70;5.20;;;27.40;96.70;;;;;;5103383;27;20046;-75
2021/06/13 10:16:47;;;;;;;5.85;5.35;;;27.50;96.70;;;;;;5085360;28;20040;-76
2021/06/13 10:19:17;;;;;;;5.85;5.30;;;27.50;96.70;;;;;;5100624;27;20100;-76
2021/06/13 10:21:49;;;;;;;4.78;4.43;;;27.70;96.70;;;;;;5117493;27;20040;-76
2021/06/13 10:24:22;;;;;;;5.00;4.60;;;27.70;96.70;;;;;;5100096;27;20476;-75
2021/06/13 10:26:53;;;;;;;4.72;3.95;;;27.80;96.70;;;;;;5100766;27;20036;-76
2021/06/13 10:29:25;;;;;;;7.70;4.30;;;27.90;96.70;;;;;;5105362;27;20082;-75
2021/06/13 10:31:57;;;;;;;4.07;3.70;;;28.00;96.10;;;;;;5098653;28;20880;-77
2021/06/13 10:34:28;;;;;;;4.68;4.28;;;28.10;95.60;;;;;;5104306;27;20059;-76
2021/06/13 10:36:59;;;;;;;4.18;3.80;;;28.10;95.00;;;;;;5103781;27;20039;-75
2021/06/13 10:39:29;;;;;;;6.72;3.83;;;28.30;95.00;;;;;;5100440;28;20113;-76
2021/06/13 10:41:59;;;;;;;3.97;3.50;;;28.40;94.50;;;;;;5098077;27;20064;-76
2021/06/13 10:44:30;;;;;;;5.13;3.95;;;28.50;94.10;;;;;;5102451;27;20055;-76
2021/06/13 10:47:11;;;;;;;3.97;3.25;;;28.40;93.10;;;;;;5099498;28;20040;-76
2021/06/13 10:49:42;;;;;;;5.28;3.75;;;28.50;93.40;;;;;;5115853;27;20145;-76
2021/06/13 10:52:14;;;;;;;4.32;3.40;;;28.60;92.50;;;;;;5101884;27;20043;-75
2021/06/13 10:54:56;;;;;;;4.60;4.10;;;28.70;91.80;;;;;;5101798;27;20493;-76
2021/06/13 10:57:33;;;;;;;3.60;3.30;;;28.70;90.70;;;;;;5096962;27;20043;-76
2021/06/13 11:00:24;;;;;;;3.60;3.30;;;28.80;91.30;;;;;;5096113;27;20047;-76
2021/06/13 11:02:59;;;;;;;3.83;3.50;;;28.90;91.40;;;;;;5100037;27;20040;-76
2021/06/13 11:05:48;;;;;;;4.53;3.95;;;29.00;90.60;;;;;;5100199;27;20406;-74
2021/06/13 11:08:18;;;;;;;5.10;3.80;;;29.00;90.30;;;;;;5099098;27;20067;-75
2021/06/13 11:10:47;;;;;;;3.92;3.63;;;29.00;90.30;;;;;;5100933;27;21237;-75
2021/06/13 11:13:23;;;;;;;4.45;4.07;;;29.00;90.80;;;;;;5101781;27;20039;-75
2021/06/13 11:15:57;;;;;;;3.70;3.40;;;29.10;90.40;;;;;;5097706;27;20435;-76
2021/06/13 11:18:28;;;;;;;4.47;4.10;;;29.20;91.00;;;;;;5102847;27;20031;-77
2021/06/13 11:21:04;;;;;;;4.20;3.80;;;29.10;89.50;;;;;;5101228;27;20048;-76
2021/06/13 11:23:43;;;;;;;4.30;3.90;;;29.20;90.60;;;;;;5103310;27;20039;-76
2021/06/13 11:26:29;;;;;;;4.43;4.13;;;29.40;90.30;;;;;;5101195;28;20788;-76
2021/06/13 11:28:58;;;;;;;4.40;4.00;;;29.30;89.10;;;;;;5105013;27;20063;-78
2021/06/13 11:31:27;;;;;;;4.10;3.80;;;29.30;90.00;;;;;;5101034;27;20233;-76
2021/06/13 11:34:07;;;;;;;4.20;3.80;;;29.50;89.50;;;;;;5100445;27;20146;-76
2021/06/13 11:36:38;;;;;;;5.13;3.85;;;29.50;89.50;;;;;;5097840;28;20405;-77
2021/06/13 11:39:25;;;;;;;4.80;3.85;;;29.50;89.10;;;;;;5102656;27;20040;-78
2021/06/13 11:42:15;;;;;;;4.32;3.90;;;29.50;88.70;;;;;;5102488;27;20123;-77
2021/06/13 11:44:45;;;;;;;4.85;4.45;;;29.60;88.60;;;;;;5100508;27;20047;-76
2021/06/13 11:47:32;;;;;;;4.50;3.42;;;29.80;88.10;;;;;;5101293;28;20067;-77
2021/06/13 11:50:04;;;;;;;4.00;3.58;;;29.80;87.50;;;;;;5097121;28;20040;-75
2021/06/13 11:53:06;;;;;;;4.07;3.67;;;29.80;87.10;;;;;;5102588;27;20386;-77
2021/06/13 11:56:00;;;;;;;5.72;3.90;;;29.90;86.40;;;;;;5100217;28;20394;-76
2021/06/13 11:58:30;;;;;;;4.00;3.70;;;30.00;86.00;;;;;;5099718;28;20043;-75
2021/06/13 12:00:59;;;;;;;4.35;3.97;;;30.00;85.70;;;;;;5100447;27;20134;-75
2021/06/13 12:03:29;;;;;;;5.60;4.10;;;30.00;85.40;;;;;;5102274;27;20035;-75
2021/06/13 12:06:03;;;;;;;4.80;4.40;;;30.00;85.80;;;;;;5099366;28;20040;-76
2021/06/13 12:08:37;;;;;;;4.40;4.00;;;30.10;86.30;;;;;;5097736;28;20044;-76
2021/06/13 12:11:07;;;;;;;5.38;3.83;;;30.00;85.50;;;;;;5100946;27;20039;-75
2021/06/13 12:13:36;;;;;;;4.30;4.00;;;30.00;85.60;;;;;;5098284;27;20039;-76
2021/06/13 12:16:22;;;;;;;4.65;4.25;;;30.00;86.50;;;;;;5099983;27;20120;-76
2021/06/13 12:19:01;;;;;;;5.03;4.50;;;30.20;85.00;;;;;;5100115;27;20047;-77
2021/06/13 12:21:31;;;;;;;4.63;4.22;;;30.20;85.00;;;;;;5103675;27;20036;-78
2021/06/13 12:24:17;;;;;;;4.70;4.30;;;30.10;84.00;;;;;;5099565;27;20056;-76
2021/06/13 12:29:38;;;;;;;4.65;3.95;;;30.30;84.60;;;;;;5101840;27;20573;-76
2021/06/13 12:32:14;;;;;;;5.07;4.35;;;30.10;84.90;;;;;;5098654;27;20096;-76
2021/06/13 12:34:43;;;;;;;4.47;4.18;;;30.30;85.00;;;;;;5099073;27;20039;-77
2021/06/13 12:37:18;;;;;;;5.47;4.55;;;30.20;84.50;;;;;;5101964;27;20433;-77
2021/06/13 12:39:56;;;;;;;4.38;4.07;;;30.30;85.10;;;;;;5099657;28;20135;-77
2021/06/13 12:42:27;;;;;;;4.93;4.50;;;30.40;84.90;;;;;;5100523;27;20158;-77
2021/06/13 12:45:00;;;;;;;5.03;4.60;;;30.40;83.90;;;;;;5098998;28;20118;-77
2021/06/13 12:47:29;;;;;;;4.70;4.20;;;30.60;85.00;;;;;;5099198;28;20134;-77
2021/06/13 12:49:59;;;;;;;4.97;4.32;;;30.60;84.20;;;;;;5099737;27;20031;-75
2021/06/13 12:52:28;;;;;;;5.15;4.65;;;30.50;85.10;;;;;;5095554;27;21160;-77
2021/06/13 12:54:59;;;;;;;5.55;4.45;;;30.50;85.50;;;;;;5114849;27;20051;-77
2021/06/13 12:57:30;;;;;;;4.72;4.25;;;30.70;84.80;;;;;;5113026;27;20047;-76
2021/06/13 12:59:59;;;;;;;4.80;4.40;;;30.70;84.40;;;;;;5105801;27;20054;-76
2021/06/13 13:02:28;;;;;;;5.57;4.70;;;30.60;85.10;;;;;;5079618;28;20047;-78
2021/06/13 13:04:58;;;;;;;6.13;5.03;;;30.80;84.20;;;;;;5079529;28;20046;-79
2021/06/13 13:07:33;;;;;;;5.20;4.63;;;30.70;84.10;;;;;;5097201;27;20040;-79
2021/06/13 13:10:08;;;;;;;6.63;5.03;;;30.80;84.40;;;;;;5099522;27;20131;-78